createdAt,value
2023-04-29T00:00:49.343Z,14.05
2023-04-29T00:03:16.309Z,13.88
2023-04-29T00:05:43.322Z,14.60
2023-04-29T00:08:10.124Z,14.15
2023-04-29T00:10:37.707Z,14.35
2023-04-29T00:13:04.512Z,14.95
2023-04-29T00:15:31.398Z,15.70
2023-04-29T00:17:58.171Z,15.45
2023-04-29T00:20:24.979Z,16.90
2023-04-29T00:22:51.972Z,17.73
2023-04-29T00:25:18.743Z,17.70
2023-04-29T00:27:45.547Z,19.13
2023-04-29T00:30:12.374Z,20.75
2023-04-29T00:32:39.191Z,19.67
2023-04-29T00:35:06.651Z,19.63
2023-04-29T00:37:34.538Z,19.08
2023-04-29T00:40:01.301Z,20.27
2023-04-29T00:42:29.475Z,22.00
2023-04-29T00:44:56.211Z,22.25
2023-04-29T00:47:23.003Z,22.23
2023-04-29T00:49:50.032Z,23.65
2023-04-29T00:52:18.026Z,24.65
2023-04-29T00:54:44.987Z,24.15
2023-04-29T00:57:12.174Z,24.08
2023-04-29T00:59:39.126Z,25.67
2023-04-29T01:02:06.927Z,25.25
2023-04-29T01:04:33.844Z,26.65
2023-04-29T01:07:16.946Z,24.80
2023-04-29T01:10:07.674Z,25.48
2023-04-29T01:12:46.976Z,24.10
2023-04-29T01:15:29.237Z,22.88
2023-04-29T01:18:26.534Z,23.17
2023-04-29T01:20:53.667Z,23.42
2023-04-29T01:23:20.437Z,22.77
2023-04-29T01:25:48.866Z,22.23
2023-04-29T01:28:42.245Z,23.33
2023-04-29T01:31:20.553Z,23.20
2023-04-29T01:34:15.268Z,23.25
2023-04-29T01:37:06.580Z,22.85
2023-04-29T01:39:46.064Z,21.13
2023-04-29T01:42:29.291Z,23.27
2023-04-29T01:44:57.209Z,21.85
2023-04-29T01:47:24.844Z,22.15
2023-04-29T01:49:51.839Z,23.48
2023-04-29T01:52:18.820Z,22.33
2023-04-29T01:54:46.100Z,23.33
2023-04-29T01:57:12.945Z,22.15
2023-04-29T01:59:40.068Z,22.70
2023-04-29T02:02:06.866Z,20.52
2023-04-29T02:04:34.463Z,22.48
2023-04-29T02:07:01.612Z,22.30
2023-04-29T02:09:28.363Z,21.10
2023-04-29T02:11:55.226Z,21.65
2023-04-29T02:14:21.999Z,21.17
2023-04-29T02:16:49.010Z,19.70
2023-04-29T02:19:16.487Z,20.08
2023-04-29T02:21:43.413Z,20.95
2023-04-29T02:24:10.412Z,19.90
2023-04-29T02:26:38.239Z,19.67
2023-04-29T02:29:05.047Z,20.05
2023-04-29T02:31:32.694Z,19.85
2023-04-29T02:34:00.364Z,20.88
2023-04-29T02:36:27.311Z,19.83
2023-04-29T02:38:55.892Z,18.95
2023-04-29T02:41:23.070Z,19.13
2023-04-29T02:43:49.844Z,18.80
2023-04-29T02:46:16.836Z,17.80
2023-04-29T02:48:43.634Z,17.05
2023-04-29T02:51:10.697Z,16.67
2023-04-29T02:53:37.583Z,14.07
2023-04-29T02:56:05.259Z,13.73
2023-04-29T02:58:32.042Z,12.48
2023-04-29T03:00:58.920Z,13.40
2023-04-29T03:03:25.858Z,12.20
2023-04-29T03:05:52.855Z,12.05
2023-04-29T03:08:19.665Z,12.68
2023-04-29T03:10:46.604Z,11.93
2023-04-29T03:13:13.965Z,12.65
2023-04-29T03:15:40.942Z,12.75
2023-04-29T03:18:07.881Z,12.70
2023-04-29T03:20:34.783Z,13.98
2023-04-29T03:23:02.199Z,13.45
2023-04-29T03:25:29.130Z,12.40
2023-04-29T03:27:56.053Z,14.23
2023-04-29T03:30:22.910Z,13.95
2023-04-29T03:32:49.674Z,13.57
2023-04-29T03:35:16.542Z,14.02
2023-04-29T03:37:44.568Z,14.73
2023-04-29T03:40:12.722Z,15.00
2023-04-29T03:42:39.543Z,15.02
2023-04-29T03:45:07.138Z,14.98
2023-04-29T03:47:34.165Z,15.90
2023-04-29T03:50:01.029Z,18.40
2023-04-29T03:52:27.842Z,17.80
2023-04-29T03:54:54.607Z,17.77
2023-04-29T03:57:21.562Z,17.85
2023-04-29T03:59:50.644Z,17.15
2023-04-29T04:02:17.985Z,19.45
2023-04-29T04:04:45.349Z,20.65
2023-04-29T04:07:12.339Z,18.38
2023-04-29T04:09:39.117Z,20.88
2023-04-29T04:12:06.671Z,21.80
2023-04-29T04:14:33.508Z,20.65
2023-04-29T04:17:01.374Z,22.77
2023-04-29T04:19:29.136Z,22.85
2023-04-29T04:21:56.197Z,24.02
2023-04-29T04:24:23.451Z,23.63
2023-04-29T04:26:50.308Z,24.85
2023-04-29T04:29:17.101Z,25.35
2023-04-29T04:31:46.272Z,24.23
2023-04-29T04:34:14.614Z,23.25
2023-04-29T04:36:42.186Z,23.42
2023-04-29T04:39:08.982Z,25.13
2023-04-29T04:41:35.795Z,26.15
2023-04-29T04:44:03.024Z,25.90
2023-04-29T04:46:29.781Z,26.67
2023-04-29T04:48:56.587Z,27.45
2023-04-29T04:51:23.342Z,25.88
2023-04-29T04:53:50.156Z,26.08
2023-04-29T04:56:17.082Z,26.67
2023-04-29T04:58:44.384Z,30.02
2023-04-29T05:01:11.400Z,31.00
2023-04-29T05:03:38.340Z,29.48
2023-04-29T05:06:05.347Z,29.00
2023-04-29T05:08:32.144Z,26.40
2023-04-29T05:10:58.918Z,29.52
2023-04-29T05:13:25.910Z,27.08
2023-04-29T05:15:52.809Z,27.63
2023-04-29T05:18:19.657Z,25.98
2023-04-29T05:20:46.445Z,25.25
2023-04-29T05:23:13.202Z,23.63
2023-04-29T05:25:40.115Z,21.25
2023-04-29T05:28:07.743Z,20.63
2023-04-29T05:30:34.752Z,19.02
2023-04-29T05:33:01.743Z,18.77
2023-04-29T05:35:28.631Z,18.45
2023-04-29T05:37:55.404Z,18.52
2023-04-29T05:40:23.140Z,18.25
2023-04-29T05:42:49.938Z,17.88
2023-04-29T05:45:16.716Z,16.73
2023-04-29T05:47:43.595Z,15.07
2023-04-29T05:50:11.521Z,16.40
2023-04-29T05:52:39.164Z,15.80
2023-04-29T05:55:06.339Z,15.52
2023-04-29T05:57:33.174Z,15.43
2023-04-29T06:00:00.297Z,14.75
2023-04-29T06:02:27.927Z,14.43
2023-04-29T06:04:55.143Z,14.02
2023-04-29T06:07:22.464Z,14.05
2023-04-29T06:09:49.324Z,12.85
2023-04-29T06:12:16.563Z,13.20
2023-04-29T06:14:43.889Z,13.07
2023-04-29T06:17:11.308Z,13.43
2023-04-29T06:19:38.489Z,12.20
2023-04-29T06:22:05.381Z,13.00
2023-04-29T06:24:32.155Z,13.10
2023-04-29T06:26:58.953Z,12.65
2023-04-29T06:29:25.961Z,12.35
2023-04-29T06:31:54.083Z,11.80
2023-04-29T06:34:20.951Z,12.65
2023-04-29T06:36:47.726Z,14.20
2023-04-29T06:39:14.499Z,13.25
2023-04-29T06:41:41.398Z,12.63
2023-04-29T06:44:08.593Z,13.38
2023-04-29T06:46:35.929Z,13.52
2023-04-29T06:49:02.759Z,12.27
2023-04-29T06:51:29.569Z,11.80
2023-04-29T06:53:56.361Z,11.52
2023-04-29T06:56:23.792Z,11.48
2023-04-29T06:58:50.605Z,11.82
2023-04-29T07:01:17.449Z,10.93
2023-04-29T07:03:44.540Z,12.40
2023-04-29T07:06:11.487Z,10.75
2023-04-29T07:08:38.276Z,10.95
2023-04-29T07:11:05.158Z,11.52
2023-04-29T07:13:32.029Z,11.15
2023-04-29T07:15:58.854Z,10.40
2023-04-29T07:18:25.637Z,12.80
2023-04-29T07:20:52.988Z,12.65
2023-04-29T07:23:19.835Z,11.43
2023-04-29T07:25:46.586Z,11.77
2023-04-29T07:28:13.371Z,11.75
2023-04-29T07:30:40.168Z,11.50
2023-04-29T07:33:07.015Z,12.18
2023-04-29T07:35:34.056Z,12.45
2023-04-29T07:38:01.121Z,12.65
2023-04-29T07:40:27.881Z,12.18
2023-04-29T07:42:54.613Z,12.05
2023-04-29T07:45:21.430Z,10.52
2023-04-29T07:47:48.336Z,11.27
2023-04-29T07:50:16.108Z,9.27
2023-04-29T07:52:42.881Z,11.15
2023-04-29T07:55:09.765Z,10.63
2023-04-29T07:57:36.788Z,10.48
2023-04-29T08:00:04.769Z,10.55
2023-04-29T08:02:31.676Z,9.27
2023-04-29T08:04:59.103Z,9.38
2023-04-29T08:07:26.284Z,9.30
2023-04-29T08:09:53.079Z,9.35
2023-04-29T08:12:19.903Z,9.40
2023-04-29T08:14:46.634Z,9.43
2023-04-29T08:17:13.414Z,9.55
2023-04-29T08:19:40.950Z,8.23
2023-04-29T08:22:07.692Z,7.03
2023-04-29T08:24:35.141Z,7.32
2023-04-29T08:27:01.947Z,7.28
2023-04-29T08:29:32.816Z,7.35
2023-04-29T08:31:59.767Z,7.13
2023-04-29T08:34:26.801Z,7.38
2023-04-29T08:36:53.558Z,7.28
2023-04-29T08:39:20.603Z,7.35
2023-04-29T08:41:51.963Z,6.95
2023-04-29T08:44:18.805Z,6.20
2023-04-29T08:46:46.694Z,6.07
2023-04-29T08:49:14.193Z,6.28
2023-04-29T08:51:41.006Z,5.18
2023-04-29T08:54:07.994Z,4.95
2023-04-29T08:56:34.948Z,5.22
2023-04-29T08:59:02.902Z,4.75
2023-04-29T09:01:31.025Z,5.28
2023-04-29T09:04:14.424Z,4.65
2023-04-29T09:06:41.543Z,5.22
2023-04-29T09:09:08.796Z,5.45
2023-04-29T09:11:37.006Z,4.90
2023-04-29T09:14:08.131Z,4.65
2023-04-29T09:16:37.335Z,5.28
2023-04-29T09:19:04.195Z,4.47
2023-04-29T09:21:32.228Z,4.28
2023-04-29T09:24:01.524Z,5.00
2023-04-29T09:26:41.694Z,4.65
2023-04-29T09:29:16.040Z,5.10
2023-04-29T09:34:11.847Z,5.88
2023-04-29T09:36:56.823Z,5.65
2023-04-29T09:39:24.134Z,4.50
2023-04-29T09:41:53.636Z,4.90
2023-04-29T09:44:33.944Z,4.55
2023-04-29T09:47:06.272Z,4.70
2023-04-29T09:49:42.696Z,4.97
2023-04-29T09:52:16.481Z,4.57
2023-04-29T09:54:44.854Z,5.00
2023-04-29T09:57:15.569Z,5.18
2023-04-29T09:59:42.920Z,5.65
2023-04-29T10:02:19.046Z,5.25
2023-04-29T10:04:49.083Z,5.18
2023-04-29T10:07:17.995Z,5.90
2023-04-29T10:09:49.501Z,4.90
2023-04-29T10:12:18.957Z,5.20
2023-04-29T10:15:12.261Z,6.22
2023-04-29T10:18:21.459Z,5.88
2023-04-29T10:20:49.097Z,5.90
2023-04-29T10:23:17.364Z,5.95
2023-04-29T10:25:45.280Z,5.97
2023-04-29T10:28:16.693Z,5.10
2023-04-29T10:30:45.322Z,5.80
2023-04-29T10:33:12.970Z,5.20
2023-04-29T10:35:40.226Z,5.70
2023-04-29T10:38:19.016Z,6.25
2023-04-29T10:40:47.683Z,6.18
2023-04-29T10:43:15.568Z,7.20
2023-04-29T10:45:42.414Z,6.80
2023-04-29T10:48:12.886Z,6.25
2023-04-29T10:50:48.878Z,7.32
2023-04-29T10:53:16.730Z,6.68
2023-04-29T10:55:47.786Z,6.00
2023-04-29T10:58:46.648Z,5.43
2023-04-29T11:01:16.744Z,5.43
2023-04-29T11:04:04.757Z,4.63
2023-04-29T11:06:37.622Z,5.38
2023-04-29T11:09:12.601Z,4.72
2023-04-29T11:11:58.255Z,4.93
2023-04-29T11:14:31.848Z,4.75
2023-04-29T11:17:09.935Z,4.07
2023-04-29T11:19:41.934Z,4.03
2023-04-29T11:22:24.131Z,4.28
2023-04-29T11:25:00.514Z,3.80
2023-04-29T11:27:32.540Z,4.75
2023-04-29T11:30:01.484Z,4.28
2023-04-29T11:32:34.691Z,4.47
2023-04-29T11:35:16.975Z,4.65
2023-04-29T11:37:46.117Z,4.18
2023-04-29T11:40:14.213Z,4.20
2023-04-29T11:42:49.030Z,4.07
2023-04-29T11:45:19.124Z,4.22
2023-04-29T11:47:47.827Z,3.75
2023-04-29T11:50:19.137Z,4.43
2023-04-29T11:52:50.002Z,4.18
2023-04-29T11:55:17.040Z,4.35
2023-04-29T11:57:44.346Z,4.00
2023-04-29T12:00:13.756Z,5.35
2023-04-29T12:02:46.173Z,5.85
2023-04-29T12:05:13.822Z,4.30
2023-04-29T12:07:41.195Z,4.28
2023-04-29T12:10:10.777Z,4.18
2023-04-29T12:12:40.798Z,3.95
2023-04-29T12:15:10.160Z,4.65
2023-04-29T12:17:38.428Z,4.05
2023-04-29T12:20:08.145Z,4.00
2023-04-29T12:22:35.628Z,3.25
2023-04-29T12:25:04.510Z,4.20
2023-04-29T12:27:33.312Z,3.67
2023-04-29T12:30:00.312Z,3.67
2023-04-29T12:32:27.185Z,4.82
2023-04-29T12:34:55.282Z,3.60
2023-04-29T12:37:23.731Z,3.33
2023-04-29T12:39:50.942Z,4.03
2023-04-29T12:42:18.108Z,3.90
2023-04-29T12:44:48.972Z,3.55
2023-04-29T12:47:17.450Z,3.30
2023-04-29T12:49:49.122Z,3.42
2023-04-29T12:52:17.282Z,2.92
2023-04-29T12:54:44.337Z,3.58
2023-04-29T12:57:12.228Z,4.05
2023-04-29T12:59:41.088Z,3.55
2023-04-29T13:02:08.374Z,3.45
2023-04-29T13:04:35.442Z,3.58
2023-04-29T13:07:04.302Z,3.53
2023-04-29T13:09:31.415Z,3.20
2023-04-29T13:11:59.244Z,3.20
2023-04-29T13:14:26.804Z,3.75
2023-04-29T13:16:53.849Z,4.05
2023-04-29T13:19:38.232Z,3.30
2023-04-29T13:22:07.513Z,3.90
2023-04-29T13:24:35.893Z,3.65
2023-04-29T13:27:05.826Z,3.55
2023-04-29T13:29:32.616Z,3.17
2023-04-29T13:31:59.448Z,3.30
2023-04-29T13:34:26.296Z,3.88
2023-04-29T13:36:53.046Z,4.70
2023-04-29T13:39:22.966Z,3.38
2023-04-29T13:41:50.024Z,3.33
2023-04-29T13:44:27.256Z,3.25
2023-04-29T13:46:57.846Z,3.20
2023-04-29T13:49:54.703Z,3.58
2023-04-29T13:53:09.980Z,3.22
2023-04-29T14:00:01.099Z,3.35
2023-04-29T14:02:29.377Z,3.15
2023-04-29T14:04:56.954Z,2.72
2023-04-29T14:07:23.993Z,3.08
2023-04-29T14:09:51.933Z,2.85
2023-04-29T14:12:18.761Z,2.92
2023-04-29T14:14:45.622Z,3.55
2023-04-29T14:17:12.408Z,4.15
2023-04-29T14:19:39.219Z,3.40
2023-04-29T14:22:06.002Z,2.92
2023-04-29T14:24:32.830Z,3.30
2023-04-29T14:26:59.615Z,3.60
2023-04-29T14:29:26.392Z,3.47
2023-04-29T14:31:53.295Z,3.13
2023-04-29T14:34:20.107Z,3.53
2023-04-29T14:36:47.047Z,2.95
2023-04-29T14:39:13.887Z,3.30
2023-04-29T14:41:40.674Z,3.15
2023-04-29T14:44:07.435Z,3.38
2023-04-29T14:46:34.399Z,3.47
2023-04-29T14:49:01.849Z,3.40
2023-04-29T14:51:29.366Z,3.45
2023-04-29T14:53:56.256Z,3.38
2023-04-29T14:56:23.080Z,3.83
2023-04-29T14:58:49.857Z,2.92
2023-04-29T15:01:16.667Z,3.28
2023-04-29T15:03:45.048Z,2.92
2023-04-29T15:06:13.105Z,3.60
2023-04-29T15:08:39.987Z,3.78
2023-04-29T15:11:06.957Z,3.80
2023-04-29T15:13:33.719Z,4.28
2023-04-29T15:16:00.772Z,3.53
2023-04-29T15:18:27.696Z,3.30
2023-04-29T15:20:54.480Z,3.08
2023-04-29T15:23:21.287Z,2.55
2023-04-29T15:25:48.111Z,3.13
2023-04-29T15:28:14.957Z,3.40
2023-04-29T15:30:41.709Z,3.53
2023-04-29T15:33:08.599Z,2.95
2023-04-29T15:35:36.485Z,4.30
2023-04-29T15:38:03.366Z,4.03
2023-04-29T15:40:30.114Z,3.90
2023-04-29T15:42:56.900Z,3.28
2023-04-29T15:45:23.652Z,3.60
2023-04-29T15:47:50.662Z,3.40
2023-04-29T15:50:17.467Z,2.90
2023-04-29T15:52:44.252Z,2.90
2023-04-29T15:55:11.900Z,2.70
2023-04-29T15:57:41.133Z,3.20
2023-04-29T16:00:09.588Z,2.90
2023-04-29T16:02:36.436Z,2.80
2023-04-29T16:05:03.623Z,3.00
2023-04-29T16:07:30.639Z,3.22
2023-04-29T16:09:57.403Z,3.80
2023-04-29T16:12:24.220Z,2.45
2023-04-29T16:14:51.341Z,2.30
2023-04-29T16:17:18.344Z,2.47
2023-04-29T16:19:45.127Z,2.70
2023-04-29T16:22:12.036Z,2.20
2023-04-29T16:24:38.860Z,1.95
2023-04-29T16:27:05.917Z,2.08
2023-04-29T16:29:33.038Z,2.13
2023-04-29T16:31:59.860Z,2.15
2023-04-29T16:34:26.659Z,2.53
2023-04-29T16:36:53.452Z,2.80
2023-04-29T16:39:20.221Z,2.65
2023-04-29T16:41:47.013Z,3.05
2023-04-29T16:44:14.427Z,2.42
2023-04-29T16:46:41.636Z,3.42
2023-04-29T16:49:08.694Z,2.13
2023-04-29T16:51:35.621Z,2.13
2023-04-29T16:54:02.620Z,2.08
2023-04-29T16:56:31.598Z,1.58
2023-04-29T16:58:58.388Z,1.98
2023-04-29T17:01:25.300Z,1.75
2023-04-29T17:03:52.126Z,2.33
2023-04-29T17:06:18.954Z,2.65
2023-04-29T17:08:45.930Z,2.05
2023-04-29T17:11:12.918Z,2.30
2023-04-29T17:13:39.735Z,2.00
2023-04-29T17:16:07.536Z,2.40
2023-04-29T17:18:34.418Z,2.28
2023-04-29T17:21:01.228Z,1.75
2023-04-29T17:23:30.513Z,2.05
2023-04-29T17:25:57.496Z,2.35
2023-04-29T17:28:24.495Z,1.70
2023-04-29T17:30:53.307Z,1.90
2023-04-29T17:33:20.231Z,1.52
2023-04-29T17:35:47.085Z,1.75
2023-04-29T17:38:13.846Z,1.90
2023-04-29T17:40:41.007Z,1.75
2023-04-29T17:43:07.764Z,1.52
2023-04-29T17:45:34.561Z,1.33
2023-04-29T17:48:01.431Z,1.20
2023-04-29T17:50:28.252Z,1.65
2023-04-29T17:52:55.092Z,1.48
2023-04-29T17:55:21.956Z,1.17
2023-04-29T17:57:48.712Z,1.73
2023-04-29T18:00:15.774Z,1.70
2023-04-29T18:02:42.592Z,1.35
2023-04-29T18:05:09.548Z,1.20
2023-04-29T18:07:36.338Z,1.30
2023-04-29T18:10:03.703Z,1.42
2023-04-29T18:12:30.538Z,1.58
2023-04-29T18:14:57.460Z,1.30
2023-04-29T18:17:24.289Z,1.83
2023-04-29T18:19:51.255Z,2.10
2023-04-29T18:22:19.124Z,1.77
2023-04-29T18:24:47.955Z,1.50
2023-04-29T18:27:14.697Z,1.15
2023-04-29T18:29:41.480Z,1.80
2023-04-29T18:32:08.427Z,1.35
2023-04-29T18:34:35.653Z,1.50
2023-04-29T18:37:02.471Z,1.60
2023-04-29T18:39:29.418Z,1.67
2023-04-29T18:41:56.223Z,1.80
2023-04-29T18:44:23.131Z,1.60
2023-04-29T18:46:50.008Z,1.88
2023-04-29T18:49:17.736Z,1.90
2023-04-29T18:51:47.774Z,1.88
2023-04-29T18:54:17.205Z,1.67
2023-04-29T18:56:49.345Z,1.63
2023-04-29T18:59:18.837Z,1.60
2023-04-29T19:01:47.172Z,1.45
2023-04-29T19:04:14.520Z,2.00
2023-04-29T19:06:41.964Z,2.28
2023-04-29T19:09:13.997Z,1.70
2023-04-29T19:11:40.747Z,1.75
2023-04-29T19:14:07.590Z,1.98
2023-04-29T19:16:36.890Z,2.05
2023-04-29T19:19:06.518Z,2.35
2023-04-29T19:21:35.714Z,1.73
2023-04-29T19:24:02.509Z,1.90
2023-04-29T19:26:34.719Z,2.20
2023-04-29T19:29:02.815Z,2.28
2023-04-29T19:31:29.648Z,2.63
2023-04-29T19:33:56.460Z,1.83
2023-04-29T19:36:23.212Z,1.50
2023-04-29T19:38:50.026Z,1.92
2023-04-29T19:41:17.691Z,1.65
2023-04-29T19:43:44.452Z,1.90
2023-04-29T19:46:14.671Z,1.73
2023-04-29T19:48:41.793Z,2.08
2023-04-29T19:51:09.254Z,2.30
2023-04-29T19:53:36.984Z,2.72
2023-04-29T19:56:03.837Z,3.55
2023-04-29T19:58:30.796Z,3.58
2023-04-29T20:00:57.661Z,3.45
2023-04-29T20:03:25.308Z,3.03
2023-04-29T20:05:52.507Z,2.78
2023-04-29T20:08:19.341Z,3.03
2023-04-29T20:10:46.231Z,2.17
2023-04-29T20:13:12.978Z,2.30
2023-04-29T20:15:40.112Z,1.70
2023-04-29T20:18:06.907Z,2.25
2023-04-29T20:20:33.713Z,1.75
2023-04-29T20:23:00.485Z,2.00
2023-04-29T20:25:28.412Z,1.42
2023-04-29T20:27:57.873Z,2.03
2023-04-29T20:30:26.052Z,1.70
2023-04-29T20:32:52.904Z,2.22
2023-04-29T20:35:20.929Z,1.42
2023-04-29T20:37:47.919Z,1.40
2023-04-29T20:40:14.719Z,2.08
2023-04-29T20:42:41.810Z,1.90
2023-04-29T20:45:09.182Z,2.22
2023-04-29T20:47:35.997Z,1.83
2023-04-29T20:50:04.702Z,2.17
2023-04-29T20:52:34.526Z,2.17
2023-04-29T20:55:01.459Z,1.73
2023-04-29T20:57:28.424Z,2.10
2023-04-29T20:59:55.701Z,1.70
2023-04-29T21:02:22.749Z,1.90
2023-04-29T21:04:49.838Z,1.80
2023-04-29T21:07:16.724Z,2.35
2023-04-29T21:09:43.595Z,2.25
2023-04-29T21:12:10.346Z,2.80
2023-04-29T21:14:37.490Z,2.47
2023-04-29T21:17:04.304Z,2.20
2023-04-29T21:19:31.068Z,1.90
2023-04-29T21:21:57.882Z,1.73
2023-04-29T21:24:24.733Z,1.60
2023-04-29T21:26:51.530Z,2.10
2023-04-29T21:29:19.760Z,3.45
2023-04-29T21:31:46.707Z,3.08
2023-04-29T21:34:13.520Z,3.30
2023-04-29T21:36:40.395Z,2.45
2023-04-29T21:39:07.280Z,2.42
2023-04-29T21:41:38.917Z,2.30
2023-04-29T21:44:07.515Z,1.92
2023-04-29T21:46:35.795Z,2.42
2023-04-29T21:49:04.019Z,1.73
2023-04-29T21:51:31.657Z,2.15
2023-04-29T21:53:58.514Z,1.90
2023-04-29T21:56:25.628Z,2.05
2023-04-29T21:58:53.257Z,2.15
2023-04-29T22:01:38.419Z,1.90
2023-04-29T22:04:05.239Z,2.60
2023-04-29T22:06:33.278Z,1.80
2023-04-29T22:09:00.180Z,1.83
2023-04-29T22:11:26.927Z,1.90
2023-04-29T22:13:53.722Z,1.90
2023-04-29T22:16:20.705Z,1.80
2023-04-29T22:18:48.066Z,1.60
2023-04-29T22:21:15.314Z,1.98
2023-04-29T22:23:42.840Z,2.33
2023-04-29T22:26:09.670Z,2.38
2023-04-29T22:28:36.456Z,2.05
2023-04-29T22:31:03.332Z,1.88
2023-04-29T22:33:30.258Z,1.88
2023-04-29T22:35:57.058Z,1.80
2023-04-29T22:38:23.958Z,1.73
2023-04-29T22:40:51.871Z,2.30
2023-04-29T22:43:18.686Z,2.13
2023-04-29T22:45:53.288Z,2.35
2023-04-29T22:48:20.683Z,1.98
2023-04-29T22:50:55.577Z,1.80
2023-04-29T22:53:22.888Z,2.20
2023-04-29T22:55:58.936Z,1.48
2023-04-29T22:58:26.324Z,2.08
2023-04-29T23:00:57.752Z,1.70
2023-04-29T23:03:25.853Z,1.67
2023-04-29T23:06:02.584Z,1.77
2023-04-29T23:08:29.462Z,1.40
2023-04-29T23:10:56.327Z,1.80
2023-04-29T23:13:23.122Z,1.90
2023-04-29T23:15:49.893Z,1.42
2023-04-29T23:18:16.705Z,2.00
2023-04-29T23:20:47.724Z,1.67
2023-04-29T23:23:15.414Z,1.90
2023-04-29T23:25:42.715Z,2.33
2023-04-29T23:28:09.719Z,1.80
2023-04-29T23:30:36.533Z,1.95
2023-04-29T23:33:03.402Z,2.20
2023-04-29T23:35:31.575Z,1.35
2023-04-29T23:37:58.360Z,1.67
2023-04-29T23:40:25.170Z,2.20
2023-04-29T23:42:52.023Z,1.85
2023-04-29T23:45:18.858Z,2.00
2023-04-29T23:47:45.787Z,1.48
2023-04-29T23:50:12.548Z,1.67
2023-04-29T23:52:39.365Z,1.77
2023-04-29T23:55:06.990Z,2.13
2023-04-29T23:57:33.817Z,1.73
